NCAR-RAP Real-Time Weather Data

Output produced by METARs form (12 May 2021  12:31 UTC)
found at http://weather.rap.ucar.edu/surface/
 
KALB 121151Z 30017G20KT 10SM FEW022 FEW034 FEW060 07/03 A3011 RMK AO2 SLP198 T00720033 10072 20050 53015
KALB 121051Z 29013KT 10SM FEW024 FEW032 FEW060 06/03 A3010 RMK AO2 SLP194 T00560028
KALB 120951Z 29016G23KT 10SM SCT024 BKN032 BKN060 05/02 A3008 RMK AO2 SLP186 T00500022
KALB 120851Z 28018G25KT 10SM FEW026 SCT080 OVC100 05/02 A3007 RMK AO2 PK WND 28029/0837 SLP183 T00500017 53002
KALB 120839Z 28020G29KT 10SM SCT026 SCT070 OVC100 06/02 A3006 RMK AO2 PK WND 28029/0837 T00560017
KALB 120812Z 28010G18KT 10SM BKN027 BKN070 OVC095 05/01 A3006 RMK AO2 T00500011
KALB 120751Z 27013G18KT 10SM SCT027 OVC095 06/01 A3005 RMK AO2 SLP178 T00560011
KALB 120651Z 27011G22KT 10SM BKN034 BKN085 BKN100 06/01 A3005 RMK AO2 SLP176 T00560006
KALB 120551Z 25010G17KT 10SM SCT037 BKN075 06/00 A3006 RMK AO2 SLP181 T00610000 10089 20044 50001
KALB 120451Z 22007KT 10SM FEW100 05/M01 A3007 RMK AO2 SLP184 T00501006 401330033
KALB 120351Z 23005KT 10SM FEW044 FEW110 05/M01 A3007 RMK AO2 SLP183 T00501006
KALB 120251Z COR 25007KT 10SM FEW080 06/M02 A3006 RMK AO2 SLP181 T00611017 50013
KALB 120151Z 26007KT 10SM FEW100 07/M03 A3006 RMK AO2 SLP181 T00671028
KALB 120051Z 25008KT 10SM FEW100 07/M02 A3003 RMK AO2 SLP171 T00721022
KALB 112351Z 26009KT 10SM FEW080 FEW100 09/M02 A3002 RMK AO2 PK WND 27027/2259 SLP168 T00891022 10128 20089 53003
KALB 112251Z 27012G19KT 10SM FEW080 BKN100 10/M03 A3001 RMK AO2 PK WND 27028/2211 SLP163 T01001028
KALB 112151Z 28010G23KT 10SM FEW065 FEW080 SCT100 11/00 A3000 RMK AO2 PK WND 28027/2116 SLP160 VIRGA E-SE T01060000
KALB 112051Z 28014G25KT 10SM BKN065 BKN095 11/01 A3001 RMK AO2 PK WND 27035/2035 SLP165 VIRGA E-SE T01060011 53003